< < Back
Terminal Aerodrome Forecast


Current Version              Previous Versions:   1  2  3  4  5  6  7  8  9  

Terminal Aerodrome Forecast

032
FTUS44 KBMX 310500
TAFANB
TAF
KANB 310520Z 3106/0106 03003KT P6SM BKN250
     FM312100 02005KT P6SM BKN050=

Latest METAR

775
SAUS70 KWBC 310700 RRB
MTRANB
METAR KANB 310653Z AUTO 00000KT 10SM CLR 20/16 A3005 RMK AO2 SLP168
T02000156


USA.gov is the U.S. government's official web portal to all federal, state and local government web resources and services.